createdAt,value
2017-12-16T00:00:08.247Z,926.33
2017-12-16T00:00:20.843Z,926.33
2017-12-16T00:00:34.056Z,926.34
2017-12-16T00:00:47.235Z,926.35
2017-12-16T00:01:01.897Z,926.32
2017-12-16T00:01:15.032Z,926.34
2017-12-16T00:01:27.676Z,926.35
2017-12-16T00:01:40.853Z,926.37
2017-12-16T00:01:54.020Z,926.34
2017-12-16T00:02:07.195Z,926.36
2017-12-16T00:02:20.344Z,926.35
2017-12-16T00:02:33.488Z,926.36
2017-12-16T00:02:46.107Z,926.36
2017-12-16T00:02:59.207Z,926.37
2017-12-16T00:03:12.374Z,926.37
2017-12-16T00:03:25.079Z,926.4
2017-12-16T00:03:37.753Z,926.36
2017-12-16T00:03:50.323Z,926.37
2017-12-16T00:04:03.529Z,926.37
2017-12-16T00:04:16.695Z,926.37
2017-12-16T00:04:29.839Z,926.35
2017-12-16T00:04:42.418Z,926.4
2017-12-16T00:04:55.039Z,926.38
2017-12-16T00:05:08.114Z,926.42
2017-12-16T00:05:20.759Z,926.39
2017-12-16T00:05:33.971Z,926.43
2017-12-16T00:05:47.167Z,926.43
2017-12-16T00:06:00.252Z,926.39
2017-12-16T00:06:13.354Z,926.43
2017-12-16T00:06:26.514Z,926.41
2017-12-16T00:06:39.643Z,926.43
2017-12-16T00:06:52.727Z,926.42
2017-12-16T00:07:05.903Z,926.47
2017-12-16T00:07:18.545Z,926.48
2017-12-16T00:07:31.646Z,926.47
2017-12-16T00:07:44.275Z,926.51
2017-12-16T00:07:57.373Z,926.47
2017-12-16T00:08:09.982Z,926.51
2017-12-16T00:08:23.071Z,926.5
2017-12-16T00:08:36.192Z,926.49
2017-12-16T00:08:49.246Z,926.5
2017-12-16T00:09:01.870Z,926.54
2017-12-16T00:09:14.489Z,926.54
2017-12-16T00:09:27.541Z,926.54
2017-12-16T00:09:40.727Z,926.53
2017-12-16T00:09:53.317Z,926.55
2017-12-16T00:10:05.957Z,926.54
2017-12-16T00:10:17.616Z,926.57
2017-12-16T00:10:30.799Z,926.55
2017-12-16T00:10:43.854Z,926.55
2017-12-16T00:10:56.031Z,926.55
2017-12-16T00:11:09.067Z,926.57
2017-12-16T00:11:21.728Z,926.53
2017-12-16T00:11:34.357Z,926.59
2017-12-16T00:11:47.464Z,926.56
2017-12-16T00:12:00.675Z,926.54
2017-12-16T00:12:14.113Z,926.56
2017-12-16T00:12:27.190Z,926.55
2017-12-16T00:12:40.306Z,926.54
2017-12-16T00:12:53.434Z,926.56
2017-12-16T00:13:06.555Z,926.56
2017-12-16T00:13:19.190Z,926.57
2017-12-16T00:13:32.209Z,926.53
2017-12-16T00:13:45.312Z,926.54
2017-12-16T00:13:58.478Z,926.56
2017-12-16T00:14:11.504Z,926.55
2017-12-16T00:14:24.511Z,926.55
2017-12-16T00:14:37.585Z,926.51
2017-12-16T00:14:50.674Z,926.52
2017-12-16T00:15:03.786Z,926.51
2017-12-16T00:15:16.876Z,926.53
2017-12-16T00:15:29.955Z,926.54
2017-12-16T00:15:42.639Z,926.52
2017-12-16T00:15:55.783Z,926.54
2017-12-16T00:16:08.888Z,926.54
2017-12-16T00:16:21.503Z,926.54
2017-12-16T00:16:34.630Z,926.54
2017-12-16T00:16:47.767Z,926.53
2017-12-16T00:17:00.848Z,926.58
2017-12-16T00:17:13.528Z,926.53
2017-12-16T00:17:25.736Z,926.59
2017-12-16T00:17:38.385Z,926.52
2017-12-16T00:17:51.470Z,926.56
2017-12-16T00:18:04.566Z,926.56
2017-12-16T00:18:17.657Z,926.58
2017-12-16T00:18:30.801Z,926.58
2017-12-16T00:18:43.915Z,926.57
2017-12-16T00:18:57.036Z,926.57
2017-12-16T00:19:10.115Z,926.59
2017-12-16T00:19:23.231Z,926.55
2017-12-16T00:19:36.307Z,926.57
2017-12-16T00:19:49.407Z,926.6
2017-12-16T00:20:02.564Z,926.56
2017-12-16T00:20:15.853Z,926.59
2017-12-16T00:20:28.942Z,926.59
2017-12-16T00:20:41.962Z,926.63
2017-12-16T00:20:55.073Z,926.62
2017-12-16T00:21:07.729Z,926.64
2017-12-16T00:21:20.776Z,926.61
2017-12-16T00:21:33.805Z,926.66
2017-12-16T00:21:46.929Z,926.68
2017-12-16T00:21:59.998Z,926.65
2017-12-16T00:22:12.671Z,926.64
2017-12-16T00:22:26.052Z,926.67
2017-12-16T00:22:39.147Z,926.68
2017-12-16T00:22:52.200Z,926.67
2017-12-16T00:23:05.261Z,926.68
2017-12-16T00:23:17.867Z,926.69
2017-12-16T00:23:30.922Z,926.69
2017-12-16T00:23:44.036Z,926.72
2017-12-16T00:23:56.664Z,926.71
2017-12-16T00:24:09.802Z,926.69
2017-12-16T00:24:22.859Z,926.72
2017-12-16T00:24:35.410Z,926.73
2017-12-16T00:24:48.524Z,926.72
2017-12-16T00:25:01.820Z,926.75
2017-12-16T00:25:14.388Z,926.75
2017-12-16T00:25:27.010Z,926.77
2017-12-16T00:25:40.066Z,926.76
2017-12-16T00:25:52.628Z,926.75
2017-12-16T00:26:05.494Z,926.78
2017-12-16T00:26:17.652Z,926.75
2017-12-16T00:26:30.712Z,926.79
2017-12-16T00:26:43.793Z,926.79
2017-12-16T00:26:56.824Z,926.81
2017-12-16T00:27:09.398Z,926.8
2017-12-16T00:27:22.346Z,926.83
2017-12-16T00:27:35.396Z,926.84
2017-12-16T00:27:48.476Z,926.82
2017-12-16T00:28:01.093Z,926.83
2017-12-16T00:28:14.105Z,926.83
2017-12-16T00:28:27.196Z,926.83
2017-12-16T00:28:39.781Z,926.83
2017-12-16T00:28:52.918Z,926.83
2017-12-16T00:29:06.019Z,926.8
2017-12-16T00:29:20.447Z,926.81
2017-12-16T00:29:33.520Z,926.83
2017-12-16T00:29:46.634Z,926.81
2017-12-16T00:29:59.692Z,926.82
2017-12-16T00:30:11.789Z,926.82
2017-12-16T00:30:24.915Z,926.81
2017-12-16T00:30:37.994Z,926.83
2017-12-16T00:30:51.083Z,926.83
2017-12-16T00:31:04.219Z,926.83
2017-12-16T00:31:16.834Z,926.82
2017-12-16T00:31:29.868Z,926.81
2017-12-16T00:31:42.498Z,926.82
2017-12-16T00:31:55.118Z,926.78
2017-12-16T00:32:07.715Z,926.78
2017-12-16T00:32:20.317Z,926.76
2017-12-16T00:32:33.374Z,926.8
2017-12-16T00:32:46.494Z,926.78
2017-12-16T00:32:59.645Z,926.77
2017-12-16T00:33:11.381Z,926.76
2017-12-16T00:33:24.021Z,926.77
2017-12-16T00:33:37.091Z,926.76
2017-12-16T00:33:50.192Z,926.73
2017-12-16T00:34:03.298Z,926.75
2017-12-16T00:34:15.870Z,926.77
2017-12-16T00:34:29.023Z,926.74
2017-12-16T00:34:41.698Z,926.71
2017-12-16T00:34:54.777Z,926.73
2017-12-16T00:35:07.368Z,926.75
2017-12-16T00:35:20.476Z,926.71
2017-12-16T00:35:33.052Z,926.73
2017-12-16T00:35:46.095Z,926.73
2017-12-16T00:35:59.146Z,926.74
2017-12-16T00:36:11.713Z,926.73
2017-12-16T00:36:24.795Z,926.74
2017-12-16T00:36:37.918Z,926.75
2017-12-16T00:36:50.995Z,926.75
2017-12-16T00:37:04.026Z,926.77
2017-12-16T00:37:17.120Z,926.74
2017-12-16T00:37:30.193Z,926.73
2017-12-16T00:37:43.261Z,926.75
2017-12-16T00:37:56.329Z,926.72
2017-12-16T00:38:08.884Z,926.76
2017-12-16T00:38:21.464Z,926.75
2017-12-16T00:38:34.465Z,926.72
2017-12-16T00:38:47.570Z,926.74
2017-12-16T00:39:00.671Z,926.75
2017-12-16T00:39:13.721Z,926.74
2017-12-16T00:39:26.771Z,926.72
2017-12-16T00:39:39.819Z,926.73
2017-12-16T00:39:52.906Z,926.77
2017-12-16T00:40:05.558Z,926.74
2017-12-16T00:40:18.134Z,926.7
2017-12-16T00:40:31.230Z,926.72
2017-12-16T00:40:43.843Z,926.73
2017-12-16T00:40:56.441Z,926.74
2017-12-16T00:41:08.637Z,926.76
2017-12-16T00:41:21.758Z,926.73
2017-12-16T00:41:34.352Z,926.73
2017-12-16T00:41:47.438Z,926.73
2017-12-16T00:42:02.010Z,926.69
2017-12-16T00:42:15.127Z,926.72
2017-12-16T00:42:28.984Z,926.7
2017-12-16T00:42:42.050Z,926.69
2017-12-16T00:42:55.186Z,926.69
2017-12-16T00:43:08.258Z,926.68
2017-12-16T00:43:20.869Z,926.68
2017-12-16T00:43:34.212Z,926.68
2017-12-16T00:43:47.334Z,926.7
2017-12-16T00:44:00.512Z,926.67
2017-12-16T00:44:13.637Z,926.7
2017-12-16T00:44:26.699Z,926.68
2017-12-16T00:44:39.321Z,926.68
2017-12-16T00:44:52.399Z,926.66
2017-12-16T00:45:05.522Z,926.68
2017-12-16T00:45:18.153Z,926.69
2017-12-16T00:45:31.271Z,926.63
2017-12-16T00:45:44.330Z,926.67
2017-12-16T00:45:56.919Z,926.67
2017-12-16T00:46:09.507Z,926.69
2017-12-16T00:46:22.133Z,926.67
2017-12-16T00:46:35.261Z,926.65
2017-12-16T00:46:48.394Z,926.68
2017-12-16T00:47:01.499Z,926.64
2017-12-16T00:47:14.640Z,926.67
2017-12-16T00:47:27.802Z,926.67
2017-12-16T00:47:40.915Z,926.66
2017-12-16T00:47:54.012Z,926.69
2017-12-16T00:48:07.141Z,926.65
2017-12-16T00:48:19.750Z,926.67
2017-12-16T00:48:32.266Z,926.64
2017-12-16T00:48:45.368Z,926.7
2017-12-16T00:48:58.523Z,926.68
2017-12-16T00:49:11.071Z,926.63
2017-12-16T00:49:23.690Z,926.67
2017-12-16T00:49:36.845Z,926.66
2017-12-16T00:49:49.963Z,926.68
2017-12-16T00:50:03.105Z,926.67
2017-12-16T00:50:15.759Z,926.66
2017-12-16T00:50:28.846Z,926.67
2017-12-16T00:50:41.887Z,926.67
2017-12-16T00:50:55.035Z,926.62
2017-12-16T00:51:08.082Z,926.64
2017-12-16T00:51:21.261Z,926.65
2017-12-16T00:51:33.838Z,926.65
2017-12-16T00:51:47.004Z,926.67
2017-12-16T00:52:00.136Z,926.64
2017-12-16T00:52:12.843Z,926.66
2017-12-16T00:52:25.952Z,926.65
2017-12-16T00:52:38.598Z,926.66
2017-12-16T00:52:51.690Z,926.65
2017-12-16T00:53:04.741Z,926.64
2017-12-16T00:53:17.401Z,926.64
2017-12-16T00:53:29.561Z,926.61
2017-12-16T00:53:42.692Z,926.62
2017-12-16T00:53:55.804Z,926.61
2017-12-16T00:54:08.893Z,926.62
2017-12-16T00:54:21.967Z,926.61
2017-12-16T00:54:35.031Z,926.62
2017-12-16T00:54:48.043Z,926.6
2017-12-16T00:55:01.131Z,926.58
2017-12-16T00:55:14.291Z,926.59
2017-12-16T00:55:27.335Z,926.62
2017-12-16T00:55:39.958Z,926.64
2017-12-16T00:55:52.598Z,926.6
2017-12-16T00:56:05.626Z,926.61
2017-12-16T00:56:18.930Z,926.6
2017-12-16T00:56:32.079Z,926.6
2017-12-16T00:56:45.191Z,926.58
2017-12-16T00:56:57.841Z,926.57
2017-12-16T00:57:10.933Z,926.58
2017-12-16T00:57:24.609Z,926.6
2017-12-16T00:57:37.683Z,926.56
2017-12-16T00:57:50.719Z,926.56
2017-12-16T00:58:03.802Z,926.58
2017-12-16T00:58:16.960Z,926.57
2017-12-16T00:58:29.513Z,926.56
2017-12-16T00:58:42.569Z,926.56
2017-12-16T00:58:55.635Z,926.51
2017-12-16T00:59:08.761Z,926.53
2017-12-16T00:59:21.923Z,926.54
2017-12-16T00:59:35.071Z,926.51
2017-12-16T00:59:47.242Z,926.52
2017-12-16T01:00:00.345Z,926.51
2017-12-16T01:00:13.495Z,926.5
2017-12-16T01:00:26.138Z,926.5
2017-12-16T01:00:38.756Z,926.53
2017-12-16T01:00:51.852Z,926.49
2017-12-16T01:01:04.932Z,926.52
2017-12-16T01:01:17.992Z,926.54
2017-12-16T01:01:31.145Z,926.53
2017-12-16T01:01:44.222Z,926.52
2017-12-16T01:01:56.843Z,926.53
2017-12-16T01:02:09.468Z,926.52
2017-12-16T01:02:22.551Z,926.53
2017-12-16T01:02:35.867Z,926.52
2017-12-16T01:02:48.496Z,926.52
2017-12-16T01:03:01.567Z,926.54
2017-12-16T01:03:14.637Z,926.52
2017-12-16T01:03:27.304Z,926.56
2017-12-16T01:03:39.912Z,926.55
2017-12-16T01:03:52.994Z,926.51
2017-12-16T01:04:06.084Z,926.54
2017-12-16T01:04:19.234Z,926.51
2017-12-16T01:04:32.375Z,926.53
2017-12-16T01:04:45.082Z,926.52
2017-12-16T01:04:58.135Z,926.55
2017-12-16T01:05:10.769Z,926.56
2017-12-16T01:05:23.390Z,926.52
2017-12-16T01:05:36.555Z,926.54
2017-12-16T01:05:49.667Z,926.56
2017-12-16T01:06:02.780Z,926.53
2017-12-16T01:06:17.444Z,926.56
2017-12-16T01:06:30.590Z,926.54
2017-12-16T01:06:43.673Z,926.57
2017-12-16T01:06:57.002Z,926.58
2017-12-16T01:07:10.202Z,926.57
2017-12-16T01:07:23.283Z,926.59
2017-12-16T01:07:35.934Z,926.57
2017-12-16T01:07:49.061Z,926.59
2017-12-16T01:08:02.189Z,926.59
2017-12-16T01:08:15.204Z,926.59
2017-12-16T01:08:27.809Z,926.57
2017-12-16T01:08:40.426Z,926.61
2017-12-16T01:08:53.569Z,926.64
2017-12-16T01:09:06.667Z,926.57
2017-12-16T01:09:19.838Z,926.62
2017-12-16T01:09:32.427Z,926.62
2017-12-16T01:09:45.476Z,926.62
2017-12-16T01:09:58.612Z,926.64
2017-12-16T01:10:11.699Z,926.63
2017-12-16T01:10:24.834Z,926.62
2017-12-16T01:10:37.870Z,926.64
2017-12-16T01:10:50.961Z,926.64
2017-12-16T01:11:04.049Z,926.62
2017-12-16T01:11:17.104Z,926.62
2017-12-16T01:11:30.205Z,926.62
2017-12-16T01:11:42.314Z,926.64
2017-12-16T01:11:54.913Z,926.66
2017-12-16T01:12:07.631Z,926.71
2017-12-16T01:12:20.761Z,926.69
2017-12-16T01:12:33.437Z,926.64
2017-12-16T01:12:46.035Z,926.63
2017-12-16T01:12:59.113Z,926.68
2017-12-16T01:13:12.158Z,926.67
2017-12-16T01:13:25.146Z,926.66
2017-12-16T01:13:37.750Z,926.66
2017-12-16T01:13:50.849Z,926.68
2017-12-16T01:14:03.981Z,926.68
2017-12-16T01:14:17.043Z,926.71
2017-12-16T01:14:30.052Z,926.7
2017-12-16T01:14:43.177Z,926.69
2017-12-16T01:14:56.353Z,926.71
2017-12-16T01:15:09.403Z,926.7
2017-12-16T01:15:21.563Z,926.68
2017-12-16T01:15:34.702Z,926.73
2017-12-16T01:15:47.872Z,926.71
2017-12-16T01:16:00.525Z,926.69
2017-12-16T01:16:13.136Z,926.72
2017-12-16T01:16:26.182Z,926.68
2017-12-16T01:16:39.277Z,926.71
2017-12-16T01:16:52.395Z,926.7
2017-12-16T01:17:05.062Z,926.71
2017-12-16T01:17:18.180Z,926.69
2017-12-16T01:17:31.299Z,926.67
2017-12-16T01:17:43.862Z,926.75
2017-12-16T01:17:56.010Z,926.72
2017-12-16T01:18:08.660Z,926.73
2017-12-16T01:18:21.271Z,926.73
2017-12-16T01:18:34.290Z,926.69
2017-12-16T01:18:46.871Z,926.72
2017-12-16T01:18:59.900Z,926.71
2017-12-16T01:19:12.989Z,926.71
2017-12-16T01:19:25.550Z,926.69
2017-12-16T01:19:38.613Z,926.72
2017-12-16T01:19:51.729Z,926.72
2017-12-16T01:20:03.837Z,926.71
2017-12-16T01:20:16.921Z,926.68
2017-12-16T01:20:30.040Z,926.71
2017-12-16T01:20:42.698Z,926.72
2017-12-16T01:20:55.690Z,926.7
2017-12-16T01:21:08.739Z,926.71
2017-12-16T01:21:21.804Z,926.76
2017-12-16T01:21:34.898Z,926.73
2017-12-16T01:21:47.054Z,926.73
2017-12-16T01:22:00.105Z,926.74
2017-12-16T01:22:13.158Z,926.74
2017-12-16T01:22:25.826Z,926.77
2017-12-16T01:22:38.953Z,926.75
2017-12-16T01:22:52.012Z,926.77
2017-12-16T01:23:05.111Z,926.75
2017-12-16T01:23:18.379Z,926.75
2017-12-16T01:23:31.480Z,926.75
2017-12-16T01:23:44.146Z,926.74
2017-12-16T01:23:56.848Z,926.77
2017-12-16T01:24:09.495Z,926.75
2017-12-16T01:24:22.607Z,926.74
2017-12-16T01:24:35.668Z,926.77
2017-12-16T01:24:48.792Z,926.73
2017-12-16T01:25:03.251Z,926.78
2017-12-16T01:25:15.856Z,926.75
2017-12-16T01:25:29.046Z,926.77
2017-12-16T01:25:41.719Z,926.74
2017-12-16T01:25:54.804Z,926.74
2017-12-16T01:26:07.916Z,926.75
2017-12-16T01:26:20.717Z,926.77
2017-12-16T01:26:33.725Z,926.78
2017-12-16T01:26:46.871Z,926.75
2017-12-16T01:26:59.913Z,926.78
2017-12-16T01:27:13.004Z,926.78
2017-12-16T01:27:25.619Z,926.78
2017-12-16T01:27:39.109Z,926.76
2017-12-16T01:27:52.191Z,926.78
2017-12-16T01:28:05.319Z,926.78
2017-12-16T01:28:18.578Z,926.82
2017-12-16T01:28:31.205Z,926.78
2017-12-16T01:28:44.296Z,926.77
2017-12-16T01:28:56.389Z,926.75
2017-12-16T01:29:09.459Z,926.77
2017-12-16T01:29:22.089Z,926.78
2017-12-16T01:29:35.203Z,926.79
2017-12-16T01:29:47.848Z,926.78
2017-12-16T01:30:00.913Z,926.8
2017-12-16T01:30:13.087Z,926.78
2017-12-16T01:30:26.182Z,926.82
2017-12-16T01:30:39.304Z,926.8
2017-12-16T01:30:52.400Z,926.78
2017-12-16T01:31:05.468Z,926.8
2017-12-16T01:31:18.120Z,926.8
2017-12-16T01:31:30.734Z,926.8
2017-12-16T01:31:43.827Z,926.78
2017-12-16T01:31:56.386Z,926.81
2017-12-16T01:32:09.066Z,926.82
2017-12-16T01:32:21.749Z,926.83
2017-12-16T01:32:34.848Z,926.85
2017-12-16T01:32:47.991Z,926.82
2017-12-16T01:33:01.130Z,926.81
2017-12-16T01:33:13.776Z,926.84
2017-12-16T01:33:25.948Z,926.79
2017-12-16T01:33:38.979Z,926.84
2017-12-16T01:33:51.990Z,926.82
2017-12-16T01:34:05.083Z,926.83
2017-12-16T01:34:17.733Z,926.86
2017-12-16T01:34:30.383Z,926.86
2017-12-16T01:34:43.446Z,926.87
2017-12-16T01:34:56.057Z,926.86
2017-12-16T01:35:09.197Z,926.86
2017-12-16T01:35:22.334Z,926.86
2017-12-16T01:35:34.925Z,926.86
2017-12-16T01:35:48.034Z,926.86
2017-12-16T01:36:01.096Z,926.87
2017-12-16T01:36:13.677Z,926.87
2017-12-16T01:36:26.818Z,926.85
2017-12-16T01:36:39.968Z,926.83
2017-12-16T01:36:53.074Z,926.88
2017-12-16T01:37:06.257Z,926.85
2017-12-16T01:37:19.402Z,926.87
2017-12-16T01:37:32.525Z,926.86
2017-12-16T01:37:45.608Z,926.85
2017-12-16T01:37:58.173Z,926.86
2017-12-16T01:38:11.299Z,926.82
2017-12-16T01:38:24.434Z,926.87
2017-12-16T01:38:37.544Z,926.83
2017-12-16T01:38:50.601Z,926.82
2017-12-16T01:39:03.694Z,926.82
2017-12-16T01:39:16.327Z,926.86
2017-12-16T01:39:28.935Z,926.88
2017-12-16T01:39:42.008Z,926.85
2017-12-16T01:39:55.060Z,926.84
2017-12-16T01:40:08.150Z,926.85
2017-12-16T01:40:19.797Z,926.82
2017-12-16T01:40:32.927Z,926.83
2017-12-16T01:40:46.081Z,926.84
2017-12-16T01:40:59.164Z,926.84
2017-12-16T01:41:12.329Z,926.83
2017-12-16T01:41:25.394Z,926.84
2017-12-16T01:41:38.084Z,926.84
2017-12-16T01:41:51.153Z,926.81
2017-12-16T01:42:04.197Z,926.8
2017-12-16T01:42:17.217Z,926.83
2017-12-16T01:42:30.251Z,926.84
2017-12-16T01:42:43.334Z,926.84
2017-12-16T01:42:56.350Z,926.84
2017-12-16T01:43:09.447Z,926.86
2017-12-16T01:43:22.498Z,926.86
2017-12-16T01:43:35.057Z,926.84
2017-12-16T01:43:48.148Z,926.82
2017-12-16T01:44:01.290Z,926.86
2017-12-16T01:44:14.337Z,926.86
2017-12-16T01:44:27.029Z,926.83
2017-12-16T01:44:40.115Z,926.86
2017-12-16T01:44:52.772Z,926.88
2017-12-16T01:45:05.925Z,926.85
2017-12-16T01:45:19.060Z,926.87
2017-12-16T01:45:32.210Z,926.84
2017-12-16T01:45:44.883Z,926.87
2017-12-16T01:45:57.958Z,926.88
2017-12-16T01:46:10.560Z,926.84
2017-12-16T01:46:23.248Z,926.83
2017-12-16T01:46:36.296Z,926.83
2017-12-16T01:46:48.874Z,926.86
2017-12-16T01:47:01.921Z,926.9
2017-12-16T01:47:14.994Z,926.88
2017-12-16T01:47:28.070Z,926.86
2017-12-16T01:47:41.103Z,926.82
2017-12-16T01:47:54.223Z,926.89
2017-12-16T01:48:07.332Z,926.86
2017-12-16T01:48:20.443Z,926.87
2017-12-16T01:48:33.508Z,926.86
2017-12-16T01:48:46.564Z,926.88
2017-12-16T01:48:59.635Z,926.86
2017-12-16T01:49:12.743Z,926.87
2017-12-16T01:49:25.862Z,926.85
2017-12-16T01:49:38.997Z,926.87
2017-12-16T01:49:51.990Z,926.84
2017-12-16T01:50:05.099Z,926.84
2017-12-16T01:50:18.240Z,926.86
2017-12-16T01:50:31.336Z,926.88
2017-12-16T01:50:43.906Z,926.89
2017-12-16T01:50:56.953Z,926.9
2017-12-16T01:51:09.602Z,926.9
2017-12-16T01:51:22.756Z,926.85
2017-12-16T01:51:34.927Z,926.86
2017-12-16T01:51:47.579Z,926.88
2017-12-16T01:52:00.678Z,926.9
2017-12-16T01:52:13.825Z,926.88
2017-12-16T01:52:26.038Z,926.87
2017-12-16T01:52:38.609Z,926.88
2017-12-16T01:52:51.713Z,926.9
2017-12-16T01:53:04.355Z,926.89
2017-12-16T01:53:17.560Z,926.91
2017-12-16T01:53:30.626Z,926.92
2017-12-16T01:53:43.754Z,926.89
2017-12-16T01:53:56.840Z,926.91
2017-12-16T01:54:09.895Z,926.86
2017-12-16T01:54:22.953Z,926.9
2017-12-16T01:54:36.051Z,926.91
2017-12-16T01:54:48.679Z,926.92
2017-12-16T01:55:01.738Z,926.89
2017-12-16T01:55:14.825Z,926.88
2017-12-16T01:55:27.390Z,926.92
2017-12-16T01:55:39.953Z,926.93
2017-12-16T01:55:53.005Z,926.89
2017-12-16T01:56:06.069Z,926.92
2017-12-16T01:56:19.162Z,926.91
2017-12-16T01:56:31.784Z,926.92
2017-12-16T01:56:44.888Z,926.91
2017-12-16T01:56:58.064Z,926.91
2017-12-16T01:57:11.043Z,926.93
2017-12-16T01:57:24.126Z,926.92
2017-12-16T01:57:37.231Z,926.92
2017-12-16T01:57:50.603Z,926.9
2017-12-16T01:58:03.644Z,926.93
2017-12-16T01:58:16.242Z,926.91
2017-12-16T01:58:29.358Z,926.92
2017-12-16T01:58:41.954Z,926.9
2017-12-16T01:58:54.979Z,926.9
2017-12-16T01:59:08.108Z,926.88
2017-12-16T01:59:21.150Z,926.91
2017-12-16T01:59:33.836Z,926.88
2017-12-16T01:59:46.524Z,926.89
2017-12-16T01:59:59.160Z,926.93
2017-12-16T02:00:12.246Z,926.88
2017-12-16T02:00:25.375Z,926.88
2017-12-16T02:00:37.969Z,926.91
2017-12-16T02:00:51.035Z,926.88
2017-12-16T02:01:03.649Z,926.91
2017-12-16T02:01:16.709Z,926.92
2017-12-16T02:01:29.785Z,926.88
2017-12-16T02:01:42.863Z,926.88
2017-12-16T02:01:56.058Z,926.91
2017-12-16T02:02:09.133Z,926.88
2017-12-16T02:02:22.211Z,926.87
2017-12-16T02:02:34.814Z,926.89
2017-12-16T02:02:47.438Z,926.86
2017-12-16T02:03:00.550Z,926.87
2017-12-16T02:03:13.662Z,926.9
2017-12-16T02:03:26.281Z,926.85
2017-12-16T02:03:38.146Z,926.87
2017-12-16T02:03:51.294Z,926.88
2017-12-16T02:04:04.329Z,926.85
2017-12-16T02:04:16.940Z,926.89
2017-12-16T02:04:29.975Z,926.86
2017-12-16T02:04:42.988Z,926.87
2017-12-16T02:04:55.545Z,926.86
2017-12-16T02:05:08.546Z,926.88
2017-12-16T02:05:21.663Z,926.86
2017-12-16T02:05:34.732Z,926.86
2017-12-16T02:05:47.522Z,926.86
2017-12-16T02:06:00.566Z,926.84
2017-12-16T02:06:13.611Z,926.81
2017-12-16T02:06:26.696Z,926.86
2017-12-16T02:06:39.737Z,926.85
2017-12-16T02:06:52.833Z,926.87
2017-12-16T02:07:05.921Z,926.87
2017-12-16T02:07:19.239Z,926.89
2017-12-16T02:07:32.338Z,926.86
2017-12-16T02:07:44.909Z,926.87
2017-12-16T02:07:57.946Z,926.88
2017-12-16T02:08:11.018Z,926.86
2017-12-16T02:08:24.103Z,926.87
2017-12-16T02:08:37.272Z,926.87
2017-12-16T02:08:50.391Z,926.87
2017-12-16T02:09:03.501Z,926.85
2017-12-16T02:09:16.602Z,926.88
2017-12-16T02:09:29.124Z,926.86
2017-12-16T02:09:42.197Z,926.85
2017-12-16T02:09:55.300Z,926.84
2017-12-16T02:10:08.338Z,926.84
2017-12-16T02:10:21.647Z,926.86
2017-12-16T02:10:34.758Z,926.85
2017-12-16T02:10:47.362Z,926.87
2017-12-16T02:11:00.375Z,926.88
2017-12-16T02:11:12.980Z,926.86
2017-12-16T02:11:26.020Z,926.87
2017-12-16T02:11:39.089Z,926.85
2017-12-16T02:11:51.668Z,926.88
2017-12-16T02:12:04.721Z,926.85
2017-12-16T02:12:17.723Z,926.86
2017-12-16T02:12:30.834Z,926.84
2017-12-16T02:12:43.399Z,926.86
2017-12-16T02:12:56.892Z,926.81
2017-12-16T02:13:09.934Z,926.84
2017-12-16T02:13:23.074Z,926.84
2017-12-16T02:13:36.188Z,926.85
2017-12-16T02:13:49.255Z,926.83
2017-12-16T02:14:01.854Z,926.84
2017-12-16T02:14:14.948Z,926.82
2017-12-16T02:14:28.016Z,926.78
2017-12-16T02:14:41.119Z,926.83
2017-12-16T02:14:54.256Z,926.83
2017-12-16T02:15:06.833Z,926.79
2017-12-16T02:15:19.912Z,926.78
2017-12-16T02:15:32.963Z,926.8
2017-12-16T02:15:46.041Z,926.8
2017-12-16T02:15:58.641Z,926.81
2017-12-16T02:16:11.698Z,926.77
2017-12-16T02:16:24.757Z,926.79
2017-12-16T02:16:37.867Z,926.74
2017-12-16T02:16:50.944Z,926.77
2017-12-16T02:17:04.026Z,926.76
2017-12-16T02:17:17.120Z,926.74
2017-12-16T02:17:29.774Z,926.75
2017-12-16T02:17:42.787Z,926.77
2017-12-16T02:17:55.905Z,926.77
2017-12-16T02:18:09.038Z,926.75
2017-12-16T02:18:22.099Z,926.75
2017-12-16T02:18:34.598Z,926.74
2017-12-16T02:18:47.101Z,926.75
2017-12-16T02:19:00.186Z,926.76
2017-12-16T02:19:12.847Z,926.75
2017-12-16T02:19:25.943Z,926.76
2017-12-16T02:19:38.948Z,926.75
2017-12-16T02:19:51.573Z,926.75
2017-12-16T02:20:04.180Z,926.75
2017-12-16T02:20:17.280Z,926.78
2017-12-16T02:20:30.378Z,926.77
2017-12-16T02:20:43.396Z,926.73
2017-12-16T02:20:55.917Z,926.75
2017-12-16T02:21:09.022Z,926.76
2017-12-16T02:21:22.186Z,926.79
2017-12-16T02:21:34.812Z,926.78
2017-12-16T02:21:47.756Z,926.75
2017-12-16T02:22:01.830Z,926.73
2017-12-16T02:22:14.905Z,926.76
2017-12-16T02:22:27.893Z,926.76
2017-12-16T02:22:40.464Z,926.76
2017-12-16T02:22:53.508Z,926.77
2017-12-16T02:23:06.650Z,926.77
2017-12-16T02:23:19.261Z,926.77
2017-12-16T02:23:32.366Z,926.8
2017-12-16T02:23:45.437Z,926.78
2017-12-16T02:23:58.088Z,926.77
2017-12-16T02:24:11.233Z,926.81
2017-12-16T02:24:24.285Z,926.78
2017-12-16T02:24:37.354Z,926.74
2017-12-16T02:24:50.398Z,926.76
2017-12-16T02:25:03.488Z,926.74
2017-12-16T02:25:16.578Z,926.77
2017-12-16T02:25:29.590Z,926.78
2017-12-16T02:25:42.589Z,926.75
2017-12-16T02:25:55.684Z,926.75
2017-12-16T02:26:08.915Z,926.76
2017-12-16T02:26:20.652Z,926.75
2017-12-16T02:26:33.742Z,926.75
2017-12-16T02:26:46.802Z,926.76
2017-12-16T02:26:59.956Z,926.76
2017-12-16T02:27:12.137Z,926.74
2017-12-16T02:27:25.168Z,926.74
2017-12-16T02:27:38.194Z,926.74
2017-12-16T02:27:51.281Z,926.74
2017-12-16T02:28:06.936Z,926.77
2017-12-16T02:28:19.946Z,926.72
2017-12-16T02:28:32.999Z,926.76
2017-12-16T02:28:46.133Z,926.73
2017-12-16T02:28:59.227Z,926.76
2017-12-16T02:29:12.274Z,926.74
2017-12-16T02:29:25.380Z,926.75
2017-12-16T02:29:38.473Z,926.72
2017-12-16T02:29:51.501Z,926.75
2017-12-16T02:30:04.135Z,926.73
2017-12-16T02:30:17.237Z,926.72
2017-12-16T02:30:30.284Z,926.7
2017-12-16T02:30:42.884Z,926.7
2017-12-16T02:30:55.955Z,926.69
2017-12-16T02:31:09.024Z,926.7
2017-12-16T02:31:22.161Z,926.71
2017-12-16T02:31:35.212Z,926.71
2017-12-16T02:31:48.333Z,926.68
2017-12-16T02:32:01.428Z,926.7
2017-12-16T02:32:14.049Z,926.66
2017-12-16T02:32:25.763Z,926.69
2017-12-16T02:32:38.939Z,926.67
2017-12-16T02:32:52.065Z,926.66
2017-12-16T02:33:04.644Z,926.63
2017-12-16T02:33:17.762Z,926.63
2017-12-16T02:33:30.398Z,926.64
2017-12-16T02:33:43.404Z,926.61
2017-12-16T02:33:56.573Z,926.64
2017-12-16T02:34:09.151Z,926.6
2017-12-16T02:34:21.768Z,926.63
2017-12-16T02:34:34.888Z,926.63
2017-12-16T02:34:48.056Z,926.62
2017-12-16T02:35:01.118Z,926.6
2017-12-16T02:35:14.242Z,926.59
2017-12-16T02:35:27.521Z,926.59
2017-12-16T02:35:40.646Z,926.58
2017-12-16T02:35:53.722Z,926.58
2017-12-16T02:36:06.819Z,926.55
2017-12-16T02:36:19.904Z,926.54
2017-12-16T02:36:32.985Z,926.55
2017-12-16T02:36:46.016Z,926.58
2017-12-16T02:36:59.082Z,926.55
2017-12-16T02:37:12.151Z,926.55
2017-12-16T02:37:25.267Z,926.55
2017-12-16T02:37:38.316Z,926.57
2017-12-16T02:37:51.405Z,926.55
2017-12-16T02:38:04.505Z,926.55
2017-12-16T02:38:17.134Z,926.54
2017-12-16T02:38:30.185Z,926.55
2017-12-16T02:38:43.262Z,926.52
2017-12-16T02:38:56.404Z,926.54
2017-12-16T02:39:09.554Z,926.51
2017-12-16T02:39:22.353Z,926.56
2017-12-16T02:39:35.489Z,926.5
2017-12-16T02:39:48.598Z,926.52
2017-12-16T02:40:01.218Z,926.54
2017-12-16T02:40:14.485Z,926.53
2017-12-16T02:40:27.774Z,926.53
2017-12-16T02:40:40.817Z,926.51
2017-12-16T02:40:53.907Z,926.54
2017-12-16T02:41:07.002Z,926.52
2017-12-16T02:41:20.055Z,926.52
2017-12-16T02:41:32.680Z,926.55
2017-12-16T02:41:45.780Z,926.51
2017-12-16T02:41:58.834Z,926.55
2017-12-16T02:42:11.475Z,926.53